createdAt,value
2018-02-03T00:02:27.910Z,0.00
2018-02-03T00:04:56.664Z,0.00
2018-02-03T00:07:25.437Z,-0.10
2018-02-03T00:09:54.429Z,0.00
2018-02-03T00:12:24.787Z,-0.10
2018-02-03T00:14:56.973Z,0.00
2018-02-03T00:17:27.822Z,-0.10
2018-02-03T00:19:56.177Z,0.00
2018-02-03T00:22:24.880Z,0.00
2018-02-03T00:24:54.658Z,0.00
2018-02-03T00:27:22.990Z,0.00
2018-02-03T00:29:51.330Z,0.00
2018-02-03T00:32:21.352Z,0.00
2018-02-03T00:34:49.801Z,0.00
2018-02-03T00:37:19.588Z,-0.10
2018-02-03T00:39:49.269Z,-0.10
2018-02-03T00:42:18.103Z,-0.10
2018-02-03T00:44:46.641Z,-0.10
2018-02-03T00:47:15.069Z,-0.10
2018-02-03T00:49:45.482Z,-0.20
2018-02-03T00:52:14.606Z,-0.20
2018-02-03T00:54:44.357Z,-0.20
2018-02-03T00:57:12.789Z,-0.20
2018-02-03T00:59:41.428Z,-0.10
2018-02-03T01:02:10.243Z,-0.10
2018-02-03T01:04:40.564Z,-0.20
2018-02-03T01:07:10.446Z,-0.20
2018-02-03T01:09:38.912Z,-0.20
2018-02-03T01:12:07.985Z,-0.30
2018-02-03T01:14:36.871Z,-0.30
2018-02-03T01:17:06.712Z,-0.30
2018-02-03T01:19:35.792Z,-0.30
2018-02-03T01:22:04.955Z,-0.40
2018-02-03T01:24:35.698Z,-0.40
2018-02-03T01:27:06.414Z,-0.40
2018-02-03T01:29:35.794Z,-0.40
2018-02-03T01:32:04.956Z,-0.40
2018-02-03T01:34:33.694Z,-0.50
2018-02-03T01:37:03.521Z,-0.50
2018-02-03T01:39:33.959Z,-0.50
2018-02-03T01:42:02.532Z,-0.50
2018-02-03T01:44:32.394Z,-0.50
2018-02-03T01:47:01.703Z,-0.50
2018-02-03T01:49:31.368Z,-0.50
2018-02-03T01:52:00.013Z,-0.40
2018-02-03T01:54:28.706Z,-0.40
2018-02-03T01:56:58.299Z,-0.50
2018-02-03T01:59:27.256Z,-0.50
2018-02-03T02:01:55.993Z,-0.50
2018-02-03T02:04:24.687Z,-0.50
2018-02-03T02:06:55.350Z,-0.50
2018-02-03T02:09:23.962Z,-0.50
2018-02-03T02:11:52.343Z,-0.60
2018-02-03T02:14:21.446Z,-0.70
2018-02-03T02:16:50.054Z,-0.70
2018-02-03T02:19:19.150Z,-0.70
2018-02-03T02:21:47.440Z,-0.70
2018-02-03T02:24:15.757Z,-0.70
2018-02-03T02:26:44.061Z,-0.70
2018-02-03T02:29:12.405Z,-0.70
2018-02-03T02:31:40.718Z,-0.80
2018-02-03T02:34:09.815Z,-0.80
2018-02-03T02:36:38.103Z,-0.80
2018-02-03T02:39:06.396Z,-0.80
2018-02-03T02:41:34.765Z,-0.80
2018-02-03T02:44:03.095Z,-0.90
2018-02-03T02:46:32.291Z,-1.00
2018-02-03T02:49:01.387Z,-1.00
2018-02-03T02:51:30.061Z,-1.00
2018-02-03T02:53:58.352Z,-1.00
2018-02-03T02:56:26.669Z,-1.00
2018-02-03T02:58:55.017Z,-1.00
2018-02-03T03:01:23.314Z,-1.10
2018-02-03T03:03:51.693Z,-1.10
2018-02-03T03:06:20.004Z,-1.10
2018-02-03T03:08:48.307Z,-1.10
2018-02-03T03:11:16.617Z,-1.10
2018-02-03T03:13:45.245Z,-1.20
2018-02-03T03:16:13.545Z,-1.20
2018-02-03T03:18:41.834Z,-1.20
2018-02-03T03:21:10.156Z,-1.20
2018-02-03T03:23:38.442Z,-1.20
2018-02-03T03:26:06.865Z,-1.20
2018-02-03T03:28:35.156Z,-1.20
2018-02-03T03:31:03.467Z,-1.20
2018-02-03T03:33:32.611Z,-1.20
2018-02-03T03:36:00.913Z,-1.20
2018-02-03T03:38:29.539Z,-1.20
2018-02-03T03:40:57.835Z,-1.30
2018-02-03T03:43:26.160Z,-1.30
2018-02-03T03:45:54.491Z,-1.30
2018-02-03T03:48:23.088Z,-1.30
2018-02-03T03:50:51.380Z,-1.30
2018-02-03T03:53:19.659Z,-1.40
2018-02-03T03:55:47.963Z,-1.30
2018-02-03T03:58:16.261Z,-1.30
2018-02-03T04:00:44.932Z,-1.30
2018-02-03T04:03:13.261Z,-1.40
2018-02-03T04:05:41.593Z,-1.40
2018-02-03T04:08:09.872Z,-1.40
2018-02-03T04:10:38.307Z,-1.30
2018-02-03T04:13:06.609Z,-1.30
2018-02-03T04:15:34.926Z,-1.30
2018-02-03T04:18:03.208Z,-1.30
2018-02-03T04:20:31.606Z,-1.40
2018-02-03T04:23:00.811Z,-1.30
2018-02-03T04:25:29.084Z,-1.40
2018-02-03T04:27:57.657Z,-1.30
2018-02-03T04:30:25.957Z,-1.20
2018-02-03T04:32:54.255Z,-1.30
2018-02-03T04:35:22.566Z,-1.40
2018-02-03T04:37:51.007Z,-1.40
2018-02-03T04:40:19.694Z,-1.40
2018-02-03T04:42:48.022Z,-1.40
2018-02-03T04:45:16.348Z,-1.40
2018-02-03T04:47:45.431Z,-1.40
2018-02-03T04:50:13.805Z,-1.40
2018-02-03T04:52:42.443Z,-1.50
2018-02-03T04:55:11.539Z,-1.50
2018-02-03T04:57:39.857Z,-1.50
2018-02-03T05:00:08.987Z,-1.50
2018-02-03T05:02:37.388Z,-1.50
2018-02-03T05:05:05.713Z,-1.50
2018-02-03T05:07:34.006Z,-1.50
2018-02-03T05:10:02.423Z,-1.50
2018-02-03T05:12:31.535Z,-1.50
2018-02-03T05:15:00.958Z,-1.50
2018-02-03T05:17:30.050Z,-1.50
2018-02-03T05:19:58.354Z,-1.60
2018-02-03T05:22:27.438Z,-1.50
2018-02-03T05:24:55.745Z,-1.50
2018-02-03T05:27:25.226Z,-1.50
2018-02-03T05:29:53.573Z,-1.60
2018-02-03T05:32:21.879Z,-1.50
2018-02-03T05:34:50.187Z,-1.50
2018-02-03T05:37:18.502Z,-1.50
2018-02-03T05:39:46.862Z,-1.60
2018-02-03T05:42:15.188Z,-1.60
2018-02-03T05:44:45.462Z,-1.60
2018-02-03T05:47:13.773Z,-1.60
2018-02-03T05:49:42.105Z,-1.60
2018-02-03T05:52:10.510Z,-1.60
2018-02-03T05:54:38.809Z,-1.60
2018-02-03T05:57:08.256Z,-1.60
2018-02-03T05:59:37.287Z,-1.70
2018-02-03T06:02:05.615Z,-1.70
2018-02-03T06:04:34.713Z,-1.70
2018-02-03T06:07:03.053Z,-1.70
2018-02-03T06:09:31.453Z,-1.70
2018-02-03T06:11:59.872Z,-1.70
2018-02-03T06:14:28.813Z,-1.70
2018-02-03T06:16:57.893Z,-1.60
2018-02-03T06:19:26.215Z,-1.70
2018-02-03T06:21:55.322Z,-1.60
2018-02-03T06:24:24.434Z,-1.60
2018-02-03T06:26:53.850Z,-1.60
2018-02-03T06:29:22.949Z,-1.60
2018-02-03T06:31:52.055Z,-1.60
2018-02-03T06:34:21.129Z,-1.60
2018-02-03T06:36:49.456Z,-1.70
2018-02-03T06:39:17.833Z,-1.60
2018-02-03T06:41:46.165Z,-1.60
2018-02-03T06:44:14.873Z,-1.70
2018-02-03T06:46:43.197Z,-1.60
2018-02-03T06:49:11.493Z,-1.60
2018-02-03T06:51:39.870Z,-1.60
2018-02-03T06:54:08.194Z,-1.60
2018-02-03T06:56:36.565Z,-1.60
2018-02-03T06:59:04.898Z,-1.60
2018-02-03T07:01:33.297Z,-1.60
2018-02-03T07:04:01.661Z,-1.60
2018-02-03T07:06:29.985Z,-1.60
2018-02-03T07:08:58.375Z,-1.60
2018-02-03T07:11:26.768Z,-1.70
2018-02-03T07:13:55.411Z,-1.60
2018-02-03T07:16:23.738Z,-1.60
2018-02-03T07:18:52.829Z,-1.60
2018-02-03T07:21:21.166Z,-1.60
2018-02-03T07:23:49.512Z,-1.60
2018-02-03T07:26:17.940Z,-1.60
2018-02-03T07:28:46.291Z,-1.70
2018-02-03T07:31:14.647Z,-1.60
2018-02-03T07:33:42.974Z,-1.60
2018-02-03T07:36:11.315Z,-1.60
2018-02-03T07:38:39.962Z,-1.60
2018-02-03T07:41:08.306Z,-1.60
2018-02-03T07:43:36.630Z,-1.60
2018-02-03T07:46:04.966Z,-1.60
2018-02-03T07:48:33.353Z,-1.60
2018-02-03T07:51:02.944Z,-1.60
2018-02-03T07:53:31.285Z,-1.60
2018-02-03T07:55:59.610Z,-1.60
2018-02-03T07:58:28.025Z,-1.50
2018-02-03T08:00:56.364Z,-1.50
2018-02-03T08:03:25.051Z,-1.40
2018-02-03T08:05:53.389Z,-1.40
2018-02-03T08:08:21.806Z,-1.40
2018-02-03T08:10:50.141Z,-1.40
2018-02-03T08:13:18.484Z,-1.30
2018-02-03T08:15:47.118Z,-1.30
2018-02-03T08:18:15.562Z,-1.20
2018-02-03T08:20:43.891Z,-1.20
2018-02-03T08:23:13.013Z,-1.10
2018-02-03T08:25:41.350Z,-1.10
2018-02-03T08:28:10.083Z,-1.00
2018-02-03T08:30:39.189Z,-1.00
2018-02-03T08:33:08.282Z,-1.00
2018-02-03T08:35:36.603Z,-1.10
2018-02-03T08:38:05.044Z,-1.10
2018-02-03T08:40:33.694Z,-1.00
2018-02-03T08:43:02.773Z,-0.90
2018-02-03T08:45:31.952Z,-0.80
2018-02-03T08:48:00.298Z,-0.90
2018-02-03T08:50:29.377Z,-0.90
2018-02-03T08:52:57.767Z,-0.90
2018-02-03T08:55:26.098Z,-0.80
2018-02-03T08:57:54.488Z,-0.80
2018-02-03T09:00:22.918Z,-0.80
2018-02-03T09:02:51.249Z,-0.80
2018-02-03T09:05:19.672Z,-0.80
2018-02-03T09:07:48.014Z,-0.70
2018-02-03T09:10:16.464Z,-0.60
2018-02-03T09:12:44.782Z,-0.40
2018-02-03T09:15:13.910Z,-0.40
2018-02-03T09:17:42.226Z,-0.40
2018-02-03T09:20:11.331Z,-0.60
2018-02-03T09:22:40.077Z,-0.60
2018-02-03T09:25:08.419Z,-0.60
2018-02-03T09:27:36.743Z,-0.60
2018-02-03T09:30:05.098Z,-0.60
2018-02-03T09:32:33.430Z,-0.60
2018-02-03T09:35:02.039Z,-0.60
2018-02-03T09:37:30.388Z,-0.70
2018-02-03T09:39:59.595Z,-0.60
2018-02-03T09:42:28.737Z,-0.60
2018-02-03T09:44:57.160Z,-0.60
2018-02-03T09:47:25.821Z,-0.50
2018-02-03T09:49:54.283Z,-0.50
2018-02-03T09:52:22.719Z,-0.40
2018-02-03T09:54:51.169Z,-0.40
2018-02-03T09:57:19.596Z,-0.40
2018-02-03T09:59:48.226Z,-0.30
2018-02-03T10:02:16.591Z,-0.20
2018-02-03T10:04:44.905Z,-0.10
2018-02-03T10:07:14.034Z,-0.10
2018-02-03T10:09:42.378Z,-0.10
2018-02-03T10:12:10.822Z,0.00
2018-02-03T10:14:39.162Z,-0.10
2018-02-03T10:17:07.889Z,-0.10
2018-02-03T10:19:36.306Z,-0.10
2018-02-03T10:22:04.653Z,0.00
2018-02-03T10:24:32.990Z,0.00
2018-02-03T10:27:01.385Z,0.10
2018-02-03T10:29:29.867Z,0.20
2018-02-03T10:31:58.241Z,0.30
2018-02-03T10:34:26.570Z,0.40
2018-02-03T10:36:54.883Z,0.50
2018-02-03T10:39:23.369Z,0.40
2018-02-03T10:41:52.927Z,0.20
2018-02-03T10:44:21.315Z,0.20
2018-02-03T10:46:49.781Z,0.20
2018-02-03T10:49:18.957Z,0.30
2018-02-03T10:51:47.357Z,0.30
2018-02-03T10:54:15.723Z,0.30
2018-02-03T10:56:44.051Z,0.20
2018-02-03T10:59:12.691Z,0.20
2018-02-03T11:01:41.006Z,0.10
2018-02-03T11:04:09.324Z,0.10
2018-02-03T11:06:37.673Z,0.20
2018-02-03T11:09:06.015Z,0.40
2018-02-03T11:11:34.695Z,0.50
2018-02-03T11:14:03.031Z,0.50
2018-02-03T11:16:31.373Z,0.60
2018-02-03T11:18:59.692Z,0.60
2018-02-03T11:21:28.777Z,0.50
2018-02-03T11:23:57.456Z,0.50
2018-02-03T11:26:25.800Z,0.60
2018-02-03T11:28:54.948Z,0.80
2018-02-03T11:31:23.284Z,0.80
2018-02-03T11:33:51.706Z,0.90
2018-02-03T11:36:20.415Z,1.00
2018-02-03T11:38:48.784Z,1.00
2018-02-03T11:41:17.967Z,1.00
2018-02-03T11:43:46.352Z,1.00
2018-02-03T11:46:14.684Z,1.20
2018-02-03T11:48:43.354Z,1.10
2018-02-03T11:51:12.471Z,0.90
2018-02-03T11:53:40.835Z,0.90
2018-02-03T11:56:09.132Z,0.80
2018-02-03T11:58:37.475Z,0.80
2018-02-03T12:01:05.877Z,0.70
2018-02-03T12:03:34.306Z,0.60
2018-02-03T12:06:02.637Z,0.70
2018-02-03T12:08:30.974Z,0.70
2018-02-03T12:10:59.289Z,0.90
2018-02-03T12:13:28.004Z,1.00
2018-02-03T12:15:57.092Z,1.20
2018-02-03T12:18:26.187Z,1.10
2018-02-03T12:20:54.520Z,1.00
2018-02-03T12:23:23.601Z,0.80
2018-02-03T12:25:52.008Z,0.80
2018-02-03T12:28:20.392Z,0.60
2018-02-03T12:30:48.828Z,0.70
2018-02-03T12:33:17.154Z,0.80
2018-02-03T12:35:45.546Z,0.90
2018-02-03T12:38:13.944Z,0.90
2018-02-03T12:40:42.263Z,0.90
2018-02-03T12:43:11.376Z,0.90
2018-02-03T12:45:39.714Z,0.90
2018-02-03T12:48:08.057Z,0.90
2018-02-03T12:50:37.215Z,0.90
2018-02-03T12:53:05.551Z,0.90
2018-02-03T12:55:33.892Z,0.90
2018-02-03T12:58:02.205Z,1.20
2018-02-03T13:00:30.556Z,1.30
2018-02-03T13:02:59.263Z,1.50
2018-02-03T13:05:27.612Z,1.70
2018-02-03T13:07:55.936Z,2.10
2018-02-03T13:10:24.245Z,2.40
2018-02-03T13:12:52.662Z,2.50
2018-02-03T13:15:21.082Z,2.40
2018-02-03T13:17:50.165Z,1.80
2018-02-03T13:20:18.531Z,1.80
2018-02-03T13:22:46.834Z,1.70
2018-02-03T13:25:15.450Z,1.70
2018-02-03T13:27:43.838Z,1.80
2018-02-03T13:30:12.180Z,1.90
2018-02-03T13:32:40.486Z,2.10
2018-02-03T13:35:08.907Z,2.00
2018-02-03T13:37:37.629Z,2.00
2018-02-03T13:40:06.021Z,1.90
2018-02-03T13:42:34.382Z,1.60
2018-02-03T13:45:03.361Z,1.30
2018-02-03T13:47:31.720Z,1.10
2018-02-03T13:50:00.454Z,0.90
2018-02-03T13:52:28.761Z,0.90
2018-02-03T13:54:57.055Z,0.80
2018-02-03T13:57:25.370Z,0.70
2018-02-03T13:59:53.706Z,0.80
2018-02-03T14:02:22.158Z,0.90
2018-02-03T14:04:50.558Z,0.90
2018-02-03T14:07:19.008Z,1.00
2018-02-03T14:09:47.344Z,1.10
2018-02-03T14:12:15.670Z,1.30
2018-02-03T14:14:44.178Z,1.20
2018-02-03T14:17:12.509Z,1.20
2018-02-03T14:19:40.903Z,1.20
2018-02-03T14:22:09.218Z,1.30
2018-02-03T14:24:44.086Z,1.20
2018-02-03T14:27:12.502Z,1.20
2018-02-03T14:29:40.907Z,1.10
2018-02-03T14:32:09.221Z,1.10
2018-02-03T14:34:37.543Z,1.30
2018-02-03T14:37:05.891Z,1.10
2018-02-03T14:39:34.647Z,0.80
2018-02-03T14:42:02.987Z,0.70
2018-02-03T14:44:31.941Z,0.70
2018-02-03T14:47:00.269Z,0.60
2018-02-03T14:49:28.578Z,0.90
2018-02-03T14:51:57.008Z,1.10
2018-02-03T14:54:25.343Z,0.80
2018-02-03T14:56:53.663Z,0.70
2018-02-03T14:59:22.774Z,0.50
2018-02-03T15:01:51.851Z,0.40
2018-02-03T15:04:20.361Z,0.40
2018-02-03T15:06:48.684Z,0.40
2018-02-03T15:09:17.035Z,0.40
2018-02-03T15:11:45.355Z,0.40
2018-02-03T15:14:14.444Z,0.40
2018-02-03T15:16:42.831Z,0.40
2018-02-03T15:19:11.163Z,0.40
2018-02-03T15:21:39.550Z,0.40
2018-02-03T15:24:07.888Z,0.30
2018-02-03T15:26:36.245Z,0.10
2018-02-03T15:29:04.624Z,0.10
2018-02-03T15:31:33.707Z,-0.10
2018-02-03T15:34:02.390Z,-0.10
2018-02-03T15:36:30.837Z,-0.20
2018-02-03T15:38:59.230Z,-0.20
2018-02-03T15:41:27.604Z,-0.20
2018-02-03T15:43:55.961Z,-0.30
2018-02-03T15:46:24.863Z,-0.30
2018-02-03T15:48:54.416Z,-0.40
2018-02-03T15:51:23.510Z,-0.40
2018-02-03T15:53:52.702Z,-0.40
2018-02-03T15:56:22.112Z,-0.40
2018-02-03T15:58:50.610Z,-0.40
2018-02-03T16:01:18.947Z,-0.40
2018-02-03T16:03:47.297Z,-0.40
2018-02-03T16:06:15.694Z,-0.40
2018-02-03T16:08:44.173Z,-0.40
2018-02-03T16:11:12.549Z,-0.40
2018-02-03T16:13:40.894Z,-0.40
2018-02-03T16:16:09.994Z,-0.50
2018-02-03T16:18:38.367Z,-0.60
2018-02-03T16:21:06.757Z,-0.60
2018-02-03T16:23:35.222Z,-0.60
2018-02-03T16:26:03.617Z,-0.70
2018-02-03T16:28:32.001Z,-0.70
2018-02-03T16:31:00.337Z,-0.60
2018-02-03T16:33:28.661Z,-0.70
2018-02-03T16:35:57.082Z,-0.70
2018-02-03T16:38:25.416Z,-0.70
2018-02-03T16:40:53.815Z,-0.70
2018-02-03T16:43:22.562Z,-0.70
2018-02-03T16:45:51.736Z,-0.70
2018-02-03T16:48:20.901Z,-0.70
2018-02-03T16:50:50.162Z,-0.70
2018-02-03T16:53:18.664Z,-0.80
2018-02-03T16:55:47.857Z,-0.70
2018-02-03T16:58:17.337Z,-0.70
2018-02-03T17:00:46.669Z,-0.70
2018-02-03T17:03:15.402Z,-0.70
2018-02-03T17:05:43.800Z,-0.70
2018-02-03T17:08:12.154Z,-0.70
2018-02-03T17:10:40.467Z,-0.70
2018-02-03T17:13:09.886Z,-0.70
2018-02-03T17:15:39.052Z,-0.70
2018-02-03T17:18:07.452Z,-0.70
2018-02-03T17:20:35.851Z,-0.70
2018-02-03T17:23:04.301Z,-0.70
2018-02-03T17:25:33.162Z,-0.70
2018-02-03T17:28:02.318Z,-0.70
2018-02-03T17:30:31.696Z,-0.70
2018-02-03T17:33:00.804Z,-0.70
2018-02-03T17:35:29.172Z,-0.70
2018-02-03T17:38:03.118Z,-0.70
2018-02-03T17:40:31.479Z,-0.70
2018-02-03T17:42:59.897Z,-0.70
2018-02-03T17:48:32.834Z,-0.70
2018-02-03T17:51:02.712Z,-0.70
2018-02-03T17:53:31.339Z,-0.70
2018-02-03T17:56:07.282Z,-0.80
2018-02-03T17:58:37.995Z,-0.80
2018-02-03T18:01:06.989Z,-0.80
2018-02-03T18:03:36.393Z,-0.80
2018-02-03T18:06:05.702Z,-0.80
2018-02-03T18:08:36.560Z,-0.80
2018-02-03T18:11:05.648Z,-0.80
2018-02-03T18:13:34.087Z,-0.80
2018-02-03T18:16:03.322Z,-0.90
2018-02-03T18:18:32.019Z,-0.90
2018-02-03T18:21:01.298Z,-0.90
2018-02-03T18:23:30.024Z,-0.90
2018-02-03T18:25:59.453Z,-0.90
2018-02-03T18:28:28.371Z,-0.90
2018-02-03T18:30:57.270Z,-1.00
2018-02-03T18:33:25.698Z,-0.90
2018-02-03T18:35:55.051Z,-1.00
2018-02-03T18:38:25.146Z,-1.00
2018-02-03T18:40:53.804Z,-1.00
2018-02-03T18:43:22.757Z,-1.00
2018-02-03T18:45:51.377Z,-1.10
2018-02-03T18:48:19.883Z,-1.10
2018-02-03T18:50:48.647Z,-1.10
2018-02-03T18:53:17.794Z,-1.10
2018-02-03T18:55:46.369Z,-1.10
2018-02-03T18:58:16.342Z,-1.10
2018-02-03T19:00:45.411Z,-1.10
2018-02-03T19:03:15.308Z,-1.10
2018-02-03T19:05:44.891Z,-1.10
2018-02-03T19:08:13.602Z,-1.10
2018-02-03T19:10:42.146Z,-1.10
2018-02-03T19:13:11.124Z,-1.10
2018-02-03T19:15:39.973Z,-1.10
2018-02-03T19:18:08.629Z,-1.10
2018-02-03T19:20:37.043Z,-1.10
2018-02-03T19:23:05.955Z,-1.10
2018-02-03T19:25:36.013Z,-1.00
2018-02-03T19:28:05.211Z,-1.00
2018-02-03T19:30:35.149Z,-1.00
2018-02-03T19:33:03.917Z,-1.00
2018-02-03T19:35:32.646Z,-1.00
2018-02-03T19:38:01.184Z,-0.90
2018-02-03T19:40:30.065Z,-1.00
2018-02-03T19:42:59.256Z,-1.00
2018-02-03T19:45:28.022Z,-1.00
2018-02-03T19:47:57.762Z,-1.00
2018-02-03T19:50:27.104Z,-1.00
2018-02-03T19:52:57.078Z,-0.90
2018-02-03T19:55:26.741Z,-0.90
2018-02-03T19:57:55.933Z,-0.90
2018-02-03T20:00:25.779Z,-0.80
2018-02-03T20:02:55.124Z,-0.80
2018-02-03T20:05:24.321Z,-0.80
2018-02-03T20:07:53.107Z,-0.80
2018-02-03T20:10:22.785Z,-0.70
2018-02-03T20:12:52.014Z,-0.70
2018-02-03T20:15:20.868Z,-0.70
2018-02-03T20:17:49.740Z,-0.70
2018-02-03T20:20:18.257Z,-0.80
2018-02-03T20:22:47.189Z,-0.80
2018-02-03T20:25:16.048Z,-0.70
2018-02-03T20:27:45.089Z,-0.70
2018-02-03T20:30:13.982Z,-0.70
2018-02-03T20:32:42.342Z,-0.70
2018-02-03T20:35:11.867Z,-0.80
2018-02-03T20:37:40.232Z,-0.80
2018-02-03T20:40:09.905Z,-0.70
2018-02-03T20:42:39.118Z,-0.70
2018-02-03T20:45:08.239Z,-0.70
2018-02-03T20:47:36.864Z,-0.70
2018-02-03T20:50:06.494Z,-0.70
2018-02-03T20:52:35.286Z,-0.70
2018-02-03T20:55:04.124Z,-0.70
2018-02-03T20:57:32.858Z,-0.70
2018-02-03T21:00:02.297Z,-0.80
2018-02-03T21:02:30.899Z,-0.80
2018-02-03T21:04:59.877Z,-0.70
2018-02-03T21:07:29.217Z,-0.70
2018-02-03T21:09:58.730Z,-0.60
2018-02-03T21:12:28.377Z,-0.70
2018-02-03T21:14:57.182Z,-0.70
2018-02-03T21:17:26.617Z,-0.70
2018-02-03T21:19:55.063Z,-0.70
2018-02-03T21:22:23.873Z,-0.70
2018-02-03T21:24:52.384Z,-0.60
2018-02-03T21:27:21.091Z,-0.70
2018-02-03T21:29:50.541Z,-0.70
2018-02-03T21:32:19.319Z,-0.70
2018-02-03T21:34:47.922Z,-0.70
2018-02-03T21:37:17.058Z,-0.60
2018-02-03T21:39:46.000Z,-0.60
2018-02-03T21:42:15.388Z,-0.60
2018-02-03T21:44:44.847Z,-0.60
2018-02-03T21:47:13.614Z,-0.60
2018-02-03T21:49:42.971Z,-0.60
2018-02-03T21:52:11.839Z,-0.50
2018-02-03T21:54:41.738Z,-0.50
2018-02-03T21:57:10.136Z,-0.60
2018-02-03T21:59:39.703Z,-0.50
2018-02-03T22:02:08.648Z,-0.60
2018-02-03T22:04:37.671Z,-0.60
2018-02-03T22:07:08.050Z,-0.70
2018-02-03T22:09:36.578Z,-0.60
2018-02-03T22:12:06.093Z,-0.60
2018-02-03T22:14:36.934Z,-0.60
2018-02-03T22:17:11.148Z,-0.60
2018-02-03T22:19:39.989Z,-0.60
2018-02-03T22:22:10.039Z,-0.60
2018-02-03T22:24:40.000Z,-0.60
2018-02-03T22:27:12.924Z,-0.60
2018-02-03T22:29:41.741Z,-0.60
2018-02-03T22:32:10.626Z,-0.50
2018-02-03T22:34:40.293Z,-0.60
2018-02-03T22:37:10.268Z,-0.60
2018-02-03T22:39:39.298Z,-0.50
2018-02-03T22:42:08.029Z,-0.60
2018-02-03T22:44:37.764Z,-0.60
2018-02-03T22:47:08.475Z,-0.60
2018-02-03T22:49:37.876Z,-0.60
2018-02-03T22:52:07.278Z,-0.50
2018-02-03T22:54:35.819Z,-0.50
2018-02-03T22:57:05.129Z,-0.50
2018-02-03T22:59:33.870Z,-0.50
2018-02-03T23:02:02.223Z,-0.50
2018-02-03T23:04:30.560Z,-0.50
2018-02-03T23:06:58.894Z,-0.60
2018-02-03T23:09:27.267Z,-0.60
2018-02-03T23:11:56.746Z,-0.60
2018-02-03T23:14:25.107Z,-0.70
2018-02-03T23:16:53.445Z,-0.80
2018-02-03T23:19:21.891Z,-0.80
2018-02-03T23:21:50.235Z,-0.90
2018-02-03T23:24:18.647Z,-1.00
2018-02-03T23:26:47.019Z,-1.10
2018-02-03T23:29:16.156Z,-1.20
2018-02-03T23:31:44.555Z,-1.10
2018-02-03T23:34:12.894Z,-1.10
2018-02-03T23:36:41.290Z,-1.20
2018-02-03T23:39:09.687Z,-1.20
2018-02-03T23:41:38.092Z,-1.20
2018-02-03T23:44:07.176Z,-1.30
2018-02-03T23:46:35.823Z,-1.40
2018-02-03T23:49:04.191Z,-1.40
2018-02-03T23:51:33.304Z,-1.30
2018-02-03T23:54:02.505Z,-1.30
2018-02-03T23:56:31.639Z,-1.30
2018-02-03T23:59:00.417Z,-1.30
